Time;durP1;ratioP1;P1;durP2;ratioP2;P2;SDS_P1;SDS_P2;PMS_P1;PMS_P2;Temp;Humidity;BMP_temperature;BMP_pressure;BME280_temperature;BME280_humidity;BME280_pressure;Samples;Min_cycle;Max_cycle;Signal;HPM_P1;HPM_P2
2022/10/29 00:01:08;;;;;;;20.23;18.08;;;12.30;99.90;;;;;;6155337;23;20191;-85
2022/10/29 00:03:37;;;;;;;18.42;16.50;;;12.30;99.90;;;;;;6155970;23;20171;-85
2022/10/29 00:06:07;;;;;;;17.85;16.15;;;12.30;99.90;;;;;;6155432;23;20179;-85
2022/10/29 00:08:37;;;;;;;17.02;15.32;;;12.30;99.90;;;;;;6154982;23;20182;-85
2022/10/29 00:11:07;;;;;;;20.95;18.77;;;12.30;99.90;;;;;;6155649;23;20199;-85
2022/10/29 00:13:36;;;;;;;17.88;16.23;;;12.30;99.90;;;;;;6155707;23;20202;-85
2022/10/29 00:16:07;;;;;;;18.33;16.30;;;12.20;99.90;;;;;;6155305;23;20180;-84
2022/10/29 00:18:36;;;;;;;20.17;16.90;;;12.20;99.90;;;;;;6154845;23;20171;-84
2022/10/29 00:21:06;;;;;;;19.02;17.13;;;12.20;99.90;;;;;;6155393;23;20250;-84
2022/10/29 00:23:35;;;;;;;15.85;14.27;;;12.20;99.90;;;;;;6155755;23;20174;-85
2022/10/29 00:26:04;;;;;;;15.48;14.10;;;12.20;99.90;;;;;;6155830;23;20175;-85
2022/10/29 00:28:32;;;;;;;15.65;14.18;;;12.20;99.90;;;;;;6154749;23;20183;-84
2022/10/29 00:31:03;;;;;;;16.02;14.50;;;12.20;99.90;;;;;;6155311;23;20206;-84
2022/10/29 00:33:33;;;;;;;19.42;15.13;;;12.20;99.90;;;;;;6155369;23;20199;-85
2022/10/29 00:36:03;;;;;;;16.95;15.27;;;12.20;99.90;;;;;;6155315;23;20179;-85
2022/10/29 00:38:33;;;;;;;17.23;15.50;;;12.20;99.90;;;;;;6154740;23;20182;-84
2022/10/29 00:41:01;;;;;;;16.00;14.40;;;12.20;99.90;;;;;;6155482;23;20199;-84
2022/10/29 00:43:29;;;;;;;16.48;14.95;;;12.10;99.90;;;;;;6155331;23;20178;-84
2022/10/29 00:46:01;;;;;;;14.90;13.50;;;12.20;99.90;;;;;;6155180;23;20190;-84
2022/10/29 00:48:34;;;;;;;16.15;14.48;;;12.20;99.90;;;;;;6154920;23;20175;-84
2022/10/29 00:51:05;;;;;;;16.75;15.02;;;12.20;99.90;;;;;;6155220;23;20194;-85
2022/10/29 00:53:38;;;;;;;15.93;14.25;;;12.20;99.90;;;;;;6155332;23;20191;-84
2022/10/29 00:56:07;;;;;;;16.60;15.00;;;12.20;99.90;;;;;;6154755;23;20163;-84
2022/10/29 00:58:36;;;;;;;17.05;15.35;;;12.20;99.90;;;;;;6154834;23;20171;-85
2022/10/29 01:01:04;;;;;;;17.17;15.40;;;12.20;99.90;;;;;;6155017;23;20199;-84
2022/10/29 01:03:34;;;;;;;19.75;17.77;;;12.20;99.90;;;;;;6154956;23;20174;-84
2022/10/29 01:06:04;;;;;;;17.92;16.25;;;12.10;99.90;;;;;;6155387;23;20171;-84
2022/10/29 01:08:32;;;;;;;21.75;17.08;;;12.10;99.90;;;;;;6154355;23;20175;-85
2022/10/29 01:11:06;;;;;;;18.42;16.58;;;12.10;99.90;;;;;;6154776;23;20195;-85
2022/10/29 01:13:50;;;;;;;20.50;18.50;;;12.10;99.90;;;;;;6154749;23;20195;-84
2022/10/29 01:16:29;;;;;;;23.13;18.73;;;12.00;99.90;;;;;;6154513;23;20167;-84
2022/10/29 01:19:10;;;;;;;24.08;19.85;;;12.10;99.90;;;;;;6154427;23;20175;-85
2022/10/29 01:21:42;;;;;;;20.27;18.25;;;12.00;99.90;;;;;;6154742;23;20222;-84
2022/10/29 01:24:42;;;;;;;20.13;18.00;;;12.10;99.90;;;;;;6154681;23;20171;-84
2022/10/29 01:27:59;;;;;;;18.25;16.65;;;12.00;99.90;;;;;;6154946;23;20235;-85
2022/10/29 01:31:01;;;;;;;21.17;18.98;;;12.00;99.90;;;;;;6154430;23;20199;-85
2022/10/29 01:33:39;;;;;;;19.92;17.27;;;12.00;99.90;;;;;;6155113;23;20194;-84
2022/10/29 01:36:17;;;;;;;17.45;15.75;;;12.00;99.90;;;;;;6154709;23;20174;-84
2022/10/29 01:38:51;;;;;;;25.45;15.73;;;11.90;99.90;;;;;;6154139;23;20183;-83
2022/10/29 01:41:25;;;;;;;17.40;15.73;;;12.00;99.90;;;;;;6154709;23;20262;-85
2022/10/29 01:44:01;;;;;;;17.40;15.73;;;12.00;99.90;;;;;;6154693;23;20174;-86
2022/10/29 01:46:36;;;;;;;17.38;15.75;;;12.10;99.90;;;;;;6155026;23;20178;-84
2022/10/29 01:49:11;;;;;;;20.23;18.13;;;12.00;99.90;;;;;;6153823;23;20179;-85
2022/10/29 01:51:40;;;;;;;19.38;17.45;;;12.10;99.90;;;;;;6154525;23;20203;-84
2022/10/29 01:54:10;;;;;;;19.23;16.45;;;12.10;99.90;;;;;;6155194;23;20190;-84
2022/10/29 01:56:39;;;;;;;18.15;16.20;;;12.10;99.90;;;;;;6154725;23;20175;-84
2022/10/29 01:59:10;;;;;;;18.33;16.63;;;12.10;99.90;;;;;;6154518;23;20258;-84
2022/10/29 02:02:07;;;;;;;18.77;16.98;;;12.10;99.90;;;;;;6156837;23;20171;-84
2022/10/29 02:04:54;;;;;;;17.67;15.82;;;12.10;99.90;;;;;;6156274;23;20225;-84
2022/10/29 02:07:36;;;;;;;18.92;16.33;;;12.10;99.90;;;;;;6156672;23;20194;-84
2022/10/29 02:10:13;;;;;;;19.25;17.15;;;12.10;99.90;;;;;;6156476;23;20199;-85
2022/10/29 02:12:47;;;;;;;17.80;15.98;;;12.10;99.90;;;;;;6157181;23;20178;-85
2022/10/29 02:15:19;;;;;;;21.23;17.80;;;12.10;99.90;;;;;;6156444;23;20199;-85
2022/10/29 02:17:49;;;;;;;19.33;17.35;;;12.10;99.90;;;;;;6155842;23;20170;-85
2022/10/29 02:20:18;;;;;;;16.42;14.93;;;12.10;99.90;;;;;;6156018;23;20198;-84
2022/10/29 02:22:46;;;;;;;21.45;15.77;;;12.10;99.90;;;;;;6156956;23;20177;-85
2022/10/29 02:25:14;;;;;;;15.88;14.50;;;12.10;99.90;;;;;;6156871;23;20175;-84
2022/10/29 02:27:43;;;;;;;18.13;16.42;;;12.00;99.90;;;;;;6156384;23;20179;-86
2022/10/29 02:30:11;;;;;;;17.92;15.68;;;12.10;99.90;;;;;;6155716;23;20206;-84
2022/10/29 02:32:39;;;;;;;15.90;14.43;;;12.00;99.90;;;;;;6156490;23;20175;-86
2022/10/29 02:35:10;;;;;;;16.90;15.25;;;12.00;99.90;;;;;;6156597;23;20198;-85
2022/10/29 02:37:38;;;;;;;18.15;15.50;;;12.00;99.90;;;;;;6156256;23;20167;-84
2022/10/29 02:40:07;;;;;;;17.17;15.57;;;12.00;99.90;;;;;;6155859;23;20206;-85
2022/10/29 02:42:35;;;;;;;17.05;15.35;;;12.00;99.90;;;;;;6156575;23;20178;-84
2022/10/29 02:45:04;;;;;;;15.02;13.50;;;12.00;99.90;;;;;;6156517;23;20176;-84
2022/10/29 02:47:33;;;;;;;16.38;14.85;;;12.00;99.90;;;;;;6156334;23;20171;-84
2022/10/29 02:50:01;;;;;;;17.70;14.77;;;12.00;99.90;;;;;;6155672;23;20198;-85
2022/10/29 02:52:31;;;;;;;16.23;14.70;;;12.00;99.90;;;;;;6156417;23;20175;-84
2022/10/29 02:54:59;;;;;;;15.68;13.88;;;12.00;99.90;;;;;;6156223;23;20191;-84
2022/10/29 02:57:27;;;;;;;16.25;14.57;;;12.00;99.90;;;;;;6155983;23;20175;-84
2022/10/29 02:59:55;;;;;;;18.38;15.60;;;12.00;99.90;;;;;;6155599;23;20202;-84
2022/10/29 03:02:23;;;;;;;16.17;14.63;;;12.00;99.90;;;;;;6156733;23;20175;-85
2022/10/29 03:04:52;;;;;;;15.85;14.32;;;12.00;99.90;;;;;;6156396;23;20217;-84
2022/10/29 03:07:20;;;;;;;16.98;15.23;;;12.00;99.90;;;;;;6156141;23;20175;-86
2022/10/29 03:09:50;;;;;;;15.15;13.65;;;12.00;99.90;;;;;;6155807;23;20202;-85
2022/10/29 03:12:18;;;;;;;16.17;14.07;;;12.00;99.90;;;;;;6155319;23;20172;-85
2022/10/29 03:14:46;;;;;;;16.35;14.85;;;12.10;99.90;;;;;;6155697;23;20191;-85
2022/10/29 03:17:15;;;;;;;16.25;13.75;;;12.10;99.90;;;;;;6156322;23;20171;-85
2022/10/29 03:19:43;;;;;;;16.15;14.63;;;12.10;99.90;;;;;;6154934;23;20179;-85
2022/10/29 03:22:11;;;;;;;15.63;14.02;;;12.10;99.90;;;;;;6156245;23;20175;-85
2022/10/29 03:24:39;;;;;;;16.30;14.70;;;12.10;99.90;;;;;;6156328;23;20167;-85
2022/10/29 03:27:09;;;;;;;17.08;15.18;;;12.00;99.90;;;;;;6156246;23;20175;-85
2022/10/29 03:29:37;;;;;;;15.73;14.15;;;12.00;99.90;;;;;;6155568;23;20175;-85
2022/10/29 03:32:06;;;;;;;21.20;14.35;;;12.10;99.90;;;;;;6155711;23;20183;-86
2022/10/29 03:34:34;;;;;;;15.40;13.90;;;12.10;99.90;;;;;;6156027;23;20195;-85
2022/10/29 03:37:02;;;;;;;15.52;14.10;;;12.10;99.90;;;;;;6155699;23;20175;-85
2022/10/29 03:39:31;;;;;;;15.52;14.05;;;12.00;99.90;;;;;;6155340;23;20178;-85
2022/10/29 03:41:59;;;;;;;19.25;15.57;;;12.10;99.90;;;;;;6156103;23;20178;-86
2022/10/29 03:44:28;;;;;;;16.25;14.52;;;12.00;99.90;;;;;;6155821;23;20171;-86
2022/10/29 03:46:57;;;;;;;16.48;14.77;;;12.00;99.90;;;;;;6155336;23;20198;-86
2022/10/29 03:49:25;;;;;;;14.95;13.48;;;12.00;99.90;;;;;;6154762;23;20183;-85
2022/10/29 03:51:53;;;;;;;16.27;14.68;;;12.00;99.90;;;;;;6155607;23;20172;-85
2022/10/29 03:54:21;;;;;;;14.45;13.05;;;11.90;99.90;;;;;;6156078;23;20191;-84
2022/10/29 03:56:50;;;;;;;14.68;13.27;;;11.90;99.90;;;;;;6155807;23;20179;-85
2022/10/29 03:59:18;;;;;;;16.85;14.45;;;12.00;99.90;;;;;;6155410;23;20177;-85
2022/10/29 04:01:47;;;;;;;14.98;13.50;;;12.00;99.90;;;;;;6155769;23;20198;-85
2022/10/29 04:04:16;;;;;;;14.60;13.18;;;12.00;99.90;;;;;;6156091;23;20179;-85
2022/10/29 04:06:44;;;;;;;15.35;14.05;;;12.00;99.90;;;;;;6155947;23;20171;-85
2022/10/29 04:09:12;;;;;;;15.00;13.45;;;12.00;99.90;;;;;;6155093;23;20171;-85
2022/10/29 04:11:40;;;;;;;17.20;15.50;;;12.00;99.90;;;;;;6155552;23;20202;-85
2022/10/29 04:14:09;;;;;;;16.30;14.68;;;12.00;99.90;;;;;;6155242;23;20183;-87
2022/10/29 04:16:38;;;;;;;17.58;15.65;;;12.00;99.90;;;;;;6154975;23;20183;-85
2022/10/29 04:19:07;;;;;;;17.20;15.40;;;12.00;99.90;;;;;;6154545;23;20182;-85
2022/10/29 04:21:35;;;;;;;16.23;14.70;;;12.00;99.90;;;;;;6155639;23;20191;-87
2022/10/29 04:24:24;;;;;;;15.02;13.63;;;12.00;99.90;;;;;;6155158;23;20226;-85
2022/10/29 04:27:12;;;;;;;15.13;13.50;;;12.00;99.90;;;;;;6154897;23;20222;-85
2022/10/29 04:30:00;;;;;;;16.15;14.50;;;12.10;99.90;;;;;;6154457;23;20253;-85
2022/10/29 04:32:28;;;;;;;19.27;14.85;;;12.00;99.90;;;;;;6155717;23;20194;-85
2022/10/29 04:34:58;;;;;;;15.68;14.18;;;12.00;99.90;;;;;;6155682;23;20204;-85
2022/10/29 04:37:29;;;;;;;15.93;14.30;;;12.00;99.90;;;;;;6155177;23;20199;-85
2022/10/29 04:39:57;;;;;;;14.50;13.10;;;12.00;99.90;;;;;;6154869;23;20191;-85
2022/10/29 04:42:25;;;;;;;15.13;13.80;;;12.00;99.90;;;;;;6155029;23;20175;-85
2022/10/29 04:44:53;;;;;;;16.67;13.88;;;12.10;99.90;;;;;;6155048;23;20167;-85
2022/10/29 04:47:22;;;;;;;15.70;14.20;;;12.10;99.90;;;;;;6155091;23;20198;-85
2022/10/29 04:49:50;;;;;;;16.48;14.90;;;12.10;99.90;;;;;;6154548;23;20202;-85
2022/10/29 04:52:20;;;;;;;16.13;14.32;;;12.10;99.90;;;;;;6155108;23;20185;-85
2022/10/29 04:54:48;;;;;;;17.13;13.65;;;12.10;99.90;;;;;;6155115;23;20219;-85
2022/10/29 04:57:16;;;;;;;15.98;14.45;;;12.10;99.90;;;;;;6155078;23;20178;-85
2022/10/29 04:59:44;;;;;;;16.65;15.07;;;12.00;99.90;;;;;;6154788;23;20179;-85
2022/10/29 05:02:12;;;;;;;16.98;14.88;;;12.00;99.90;;;;;;6155031;23;20242;-85
2022/10/29 05:04:41;;;;;;;16.77;15.02;;;11.90;99.90;;;;;;6154921;23;20185;-85
2022/10/29 05:07:09;;;;;;;15.80;14.30;;;11.90;99.90;;;;;;6154473;23;20230;-84
2022/10/29 05:09:39;;;;;;;16.83;14.30;;;11.90;99.90;;;;;;6154417;23;20171;-85
2022/10/29 05:12:08;;;;;;;19.40;15.98;;;11.90;99.90;;;;;;6155155;23;20179;-85
2022/10/29 05:14:36;;;;;;;16.42;14.77;;;12.00;99.90;;;;;;6155227;23;20171;-85
2022/10/29 05:17:04;;;;;;;18.02;15.30;;;11.90;99.90;;;;;;6154539;23;20222;-85
2022/10/29 05:19:32;;;;;;;17.67;15.80;;;11.90;99.90;;;;;;6154338;23;20262;-85
2022/10/29 05:22:01;;;;;;;18.70;16.05;;;11.90;99.90;;;;;;6155014;23;20171;-85
2022/10/29 05:24:29;;;;;;;18.95;15.32;;;11.90;99.90;;;;;;6155271;23;20179;-85
2022/10/29 05:26:59;;;;;;;18.80;15.85;;;11.90;99.90;;;;;;6154815;23;20171;-86
2022/10/29 05:29:27;;;;;;;15.90;14.40;;;11.90;99.90;;;;;;6154374;23;20178;-85
2022/10/29 05:31:55;;;;;;;15.80;14.20;;;11.90;99.90;;;;;;6154887;23;20186;-87
2022/10/29 05:34:23;;;;;;;17.13;15.23;;;11.90;99.90;;;;;;6154729;23;20180;-85
2022/10/29 05:36:51;;;;;;;16.15;14.55;;;11.90;99.90;;;;;;6154967;23;20194;-86
2022/10/29 05:39:20;;;;;;;16.95;15.27;;;11.90;99.90;;;;;;6154095;23;20175;-86
2022/10/29 05:41:48;;;;;;;17.35;15.50;;;11.90;99.90;;;;;;6154771;23;20191;-85
2022/10/29 05:44:18;;;;;;;17.55;15.00;;;11.90;99.90;;;;;;6154876;23;20179;-85
2022/10/29 05:46:48;;;;;;;17.27;15.45;;;11.90;99.90;;;;;;6154747;23;20178;-85
2022/10/29 05:49:16;;;;;;;18.13;15.30;;;11.80;99.90;;;;;;6153725;23;20163;-85
2022/10/29 05:51:45;;;;;;;16.20;14.50;;;11.80;99.90;;;;;;6154737;23;20201;-86
2022/10/29 05:54:13;;;;;;;17.70;16.02;;;11.80;99.90;;;;;;6154372;23;20178;-85
2022/10/29 05:56:41;;;;;;;18.35;16.35;;;11.80;99.90;;;;;;6154745;23;20187;-86
2022/10/29 05:59:09;;;;;;;17.42;15.77;;;11.80;99.90;;;;;;6154269;23;20179;-85
2022/10/29 06:01:39;;;;;;;25.70;15.88;;;11.80;99.90;;;;;;6154637;23;20195;-85
2022/10/29 06:04:07;;;;;;;17.10;15.50;;;11.70;99.90;;;;;;6154756;23;20172;-84
2022/10/29 06:06:36;;;;;;;16.73;14.93;;;11.70;99.90;;;;;;6154472;23;20171;-84
2022/10/29 06:09:05;;;;;;;18.52;16.15;;;11.70;99.90;;;;;;6154115;23;20178;-86
2022/10/29 06:11:33;;;;;;;18.50;15.48;;;11.70;99.90;;;;;;6154646;23;20202;-85
2022/10/29 06:14:02;;;;;;;16.40;14.80;;;11.80;99.90;;;;;;6155067;23;20182;-86
2022/10/29 06:16:30;;;;;;;16.58;15.07;;;11.80;99.90;;;;;;6154713;23;20191;-85
2022/10/29 06:19:00;;;;;;;15.35;13.98;;;11.80;99.90;;;;;;6153701;23;20171;-86
2022/10/29 06:21:28;;;;;;;16.55;14.88;;;11.80;99.90;;;;;;6154503;23;20195;-86
2022/10/29 06:23:56;;;;;;;15.48;13.77;;;11.80;99.90;;;;;;6154715;23;20250;-86
2022/10/29 06:26:24;;;;;;;16.85;15.07;;;11.90;99.90;;;;;;6154547;23;20172;-86
2022/10/29 06:28:53;;;;;;;15.45;13.95;;;11.90;99.90;;;;;;6154132;23;20181;-86
2022/10/29 06:31:21;;;;;;;16.08;13.45;;;11.90;99.90;;;;;;6154077;23;20199;-86
2022/10/29 06:33:49;;;;;;;14.07;12.80;;;11.90;99.90;;;;;;6154694;23;20177;-86
2022/10/29 06:36:19;;;;;;;15.77;12.50;;;11.80;99.90;;;;;;6154599;23;20191;-86
2022/10/29 06:38:47;;;;;;;14.90;13.40;;;11.80;99.90;;;;;;6154107;23;20263;-86
2022/10/29 06:41:15;;;;;;;16.60;14.35;;;11.80;99.90;;;;;;6155006;23;20202;-85
2022/10/29 06:43:44;;;;;;;14.80;13.40;;;11.80;99.90;;;;;;6154302;23;20171;-85
2022/10/29 06:46:12;;;;;;;14.25;12.85;;;11.90;99.90;;;;;;6155015;23;20178;-85
2022/10/29 06:48:40;;;;;;;23.75;13.80;;;11.90;99.90;;;;;;6155464;23;20179;-85
2022/10/29 06:51:08;;;;;;;14.45;12.95;;;12.00;99.90;;;;;;6155858;23;20191;-86
2022/10/29 06:53:39;;;;;;;15.07;13.65;;;12.00;99.90;;;;;;6156454;23;20241;-86
2022/10/29 06:56:07;;;;;;;15.90;14.05;;;12.00;99.90;;;;;;6156508;23;20198;-85
2022/10/29 06:58:35;;;;;;;14.60;12.55;;;12.00;99.90;;;;;;6155504;23;20175;-85
2022/10/29 07:01:04;;;;;;;15.57;13.25;;;12.00;99.90;;;;;;6156040;23;20195;-85
2022/10/29 07:03:32;;;;;;;14.48;13.05;;;12.10;99.90;;;;;;6156568;23;20182;-84
2022/10/29 07:06:00;;;;;;;14.60;13.30;;;12.10;99.90;;;;;;6156388;23;20171;-85
2022/10/29 07:08:29;;;;;;;14.13;12.80;;;12.10;99.90;;;;;;6155946;23;20171;-84
2022/10/29 07:11:01;;;;;;;14.20;12.77;;;12.10;99.90;;;;;;6156328;23;20202;-85
2022/10/29 07:13:29;;;;;;;13.38;11.80;;;12.10;99.90;;;;;;6156151;23;20178;-84
2022/10/29 07:15:58;;;;;;;14.48;12.60;;;12.10;99.90;;;;;;6155577;23;20183;-84
2022/10/29 07:18:26;;;;;;;16.10;12.40;;;12.10;99.90;;;;;;6155331;23;20175;-84
2022/10/29 07:20:54;;;;;;;15.35;12.77;;;12.10;99.90;;;;;;6155835;23;20195;-84
2022/10/29 07:23:22;;;;;;;13.27;11.60;;;12.10;99.90;;;;;;6155991;23;20175;-84
2022/10/29 07:25:53;;;;;;;14.77;12.15;;;12.00;99.90;;;;;;6155997;23;20176;-85
2022/10/29 07:28:24;;;;;;;13.32;11.95;;;12.00;99.90;;;;;;6156026;23;20171;-85
2022/10/29 07:30:53;;;;;;;13.27;11.98;;;12.00;99.90;;;;;;6156087;23;20214;-85
2022/10/29 07:33:21;;;;;;;13.40;12.05;;;12.10;99.90;;;;;;6155968;23;20195;-85
2022/10/29 07:35:50;;;;;;;14.15;11.60;;;12.00;99.90;;;;;;6155903;23;20176;-85
2022/10/29 07:38:18;;;;;;;13.25;11.82;;;12.10;99.90;;;;;;6155541;23;20195;-85
2022/10/29 07:40:48;;;;;;;12.80;11.60;;;12.10;99.90;;;;;;6155742;23;20226;-85
2022/10/29 07:43:17;;;;;;;14.00;12.68;;;12.10;99.90;;;;;;6155289;23;20183;-85
2022/10/29 07:45:48;;;;;;;13.98;12.40;;;12.10;99.90;;;;;;6155904;23;20194;-85
2022/10/29 07:48:18;;;;;;;11.85;10.57;;;12.10;99.90;;;;;;6155333;23;20172;-85
2022/10/29 07:50:47;;;;;;;15.63;11.27;;;12.20;99.90;;;;;;6155170;23;20195;-85
2022/10/29 07:53:15;;;;;;;12.35;10.98;;;12.30;99.90;;;;;;6155993;23;20171;-85
2022/10/29 07:55:44;;;;;;;14.32;12.93;;;12.30;99.90;;;;;;6156397;23;20179;-84
2022/10/29 07:58:12;;;;;;;13.45;12.15;;;12.30;99.90;;;;;;6155346;23;20229;-85
2022/10/29 08:00:41;;;;;;;15.07;11.45;;;12.30;99.90;;;;;;6155172;23;20195;-85
2022/10/29 08:03:12;;;;;;;11.40;10.32;;;12.30;99.90;;;;;;6155517;23;20194;-84
2022/10/29 08:05:41;;;;;;;12.15;10.82;;;12.20;99.90;;;;;;6155715;23;20167;-85
2022/10/29 08:08:10;;;;;;;11.68;10.63;;;12.20;99.90;;;;;;6155216;23;20173;-85
2022/10/29 08:10:39;;;;;;;11.77;10.73;;;12.20;99.90;;;;;;6155032;23;20191;-85
2022/10/29 08:13:07;;;;;;;12.25;10.98;;;12.20;99.90;;;;;;6155822;23;20179;-85
2022/10/29 08:15:35;;;;;;;10.98;9.98;;;12.20;99.90;;;;;;6155293;23;20183;-85
2022/10/29 08:18:12;;;;;;;11.80;10.70;;;12.20;99.90;;;;;;6155286;23;20199;-85
2022/10/29 08:20:40;;;;;;;12.18;10.93;;;12.20;99.90;;;;;;6154410;23;20195;-85
2022/10/29 08:23:08;;;;;;;12.27;10.98;;;12.20;99.90;;;;;;6155552;23;20231;-85
2022/10/29 08:25:40;;;;;;;12.07;10.80;;;12.20;99.90;;;;;;6155730;23;20171;-85
2022/10/29 08:28:10;;;;;;;11.32;10.30;;;12.20;99.90;;;;;;6155519;23;20168;-85
2022/10/29 08:30:38;;;;;;;11.07;9.77;;;12.20;99.90;;;;;;6154792;23;20207;-85
2022/10/29 08:33:07;;;;;;;9.93;9.02;;;12.20;99.90;;;;;;6155530;23;20178;-85
2022/10/29 08:35:36;;;;;;;11.18;10.25;;;12.20;99.90;;;;;;6155084;23;20175;-85
2022/10/29 08:38:05;;;;;;;11.35;10.23;;;12.20;99.90;;;;;;6155459;23;20210;-84
2022/10/29 08:40:43;;;;;;;11.15;9.85;;;12.20;99.90;;;;;;6154898;23;20225;-86
2022/10/29 08:43:36;;;;;;;12.20;9.63;;;12.20;99.90;;;;;;6155441;23;20167;-86
2022/10/29 08:46:10;;;;;;;13.05;11.75;;;12.20;99.90;;;;;;6155201;23;20175;-85
2022/10/29 08:48:45;;;;;;;10.55;9.07;;;12.10;99.90;;;;;;6154784;23;20168;-86
2022/10/29 08:51:21;;;;;;;10.23;9.15;;;12.10;99.90;;;;;;6154373;23;20250;-85
2022/10/29 08:53:51;;;;;;;9.05;8.18;;;12.10;99.90;;;;;;6155230;23;20171;-85
2022/10/29 08:56:43;;;;;;;12.35;10.77;;;12.10;99.90;;;;;;6154937;23;20183;-84
2022/10/29 08:59:14;;;;;;;11.65;10.57;;;12.20;99.90;;;;;;6154518;23;20178;-85
2022/10/29 09:01:43;;;;;;;12.15;10.75;;;12.20;99.90;;;;;;6155172;23;20199;-85
2022/10/29 09:04:22;;;;;;;12.27;11.13;;;12.30;99.90;;;;;;6155062;23;20202;-85
2022/10/29 09:07:09;;;;;;;12.55;11.25;;;12.30;99.90;;;;;;6155529;23;20167;-85
2022/10/29 09:09:41;;;;;;;11.43;10.38;;;12.30;99.90;;;;;;6153937;23;20171;-85
2022/10/29 09:12:34;;;;;;;11.25;10.05;;;12.40;99.90;;;;;;6155157;23;20175;-85
2022/10/29 09:15:35;;;;;;;12.77;11.63;;;12.40;99.90;;;;;;6155206;23;20167;-85
2022/10/29 09:18:21;;;;;;;12.70;11.55;;;12.40;99.90;;;;;;6151510;23;20191;-84
2022/10/29 09:20:55;;;;;;;13.38;12.10;;;12.40;99.90;;;;;;6154439;23;20200;-84
2022/10/29 09:23:38;;;;;;;12.88;11.68;;;12.40;99.90;;;;;;6155082;23;20171;-85
2022/10/29 09:26:14;;;;;;;12.57;11.48;;;12.50;99.90;;;;;;6154812;23;20175;-85
2022/10/29 09:28:52;;;;;;;16.20;11.20;;;12.50;99.90;;;;;;6154287;23;20250;-85
2022/10/29 09:31:31;;;;;;;11.43;10.52;;;12.50;99.90;;;;;;6155042;23;20203;-85
2022/10/29 09:34:05;;;;;;;12.50;11.27;;;12.50;99.90;;;;;;6154829;23;20164;-85
2022/10/29 09:36:34;;;;;;;12.40;11.10;;;12.50;99.90;;;;;;6154935;23;20183;-85
2022/10/29 09:39:12;;;;;;;12.57;11.27;;;12.50;99.90;;;;;;6154240;23;20198;-85
2022/10/29 09:41:41;;;;;;;11.32;10.20;;;12.50;99.90;;;;;;6154853;23;20197;-85
2022/10/29 09:44:19;;;;;;;11.43;10.23;;;12.60;99.90;;;;;;6154938;23;20226;-84
2022/10/29 09:47:01;;;;;;;9.88;9.05;;;12.60;99.90;;;;;;6154753;23;20173;-84
2022/10/29 09:49:49;;;;;;;14.02;9.20;;;12.60;99.90;;;;;;6153852;23;20163;-85
2022/10/29 09:52:20;;;;;;;10.52;9.63;;;12.60;99.90;;;;;;6154464;23;20167;-85
2022/10/29 09:54:52;;;;;;;8.77;7.97;;;12.70;99.90;;;;;;6154932;23;20172;-85
2022/10/29 09:57:23;;;;;;;10.50;9.55;;;12.70;99.90;;;;;;6154727;23;20178;-85
2022/10/29 09:59:55;;;;;;;9.32;8.52;;;12.70;99.90;;;;;;6153707;23;20197;-85
2022/10/29 10:02:30;;;;;;;11.13;9.95;;;12.70;99.90;;;;;;6154857;23;20167;-85
2022/10/29 10:05:04;;;;;;;9.98;8.98;;;12.70;99.90;;;;;;6154877;23;20177;-85
2022/10/29 10:07:33;;;;;;;11.07;9.90;;;12.70;99.90;;;;;;6155057;23;20170;-85
2022/10/29 10:10:04;;;;;;;10.10;9.23;;;12.70;99.90;;;;;;6154453;23;20202;-86
2022/10/29 10:12:46;;;;;;;11.02;9.93;;;12.70;99.90;;;;;;6154812;23;20175;-86
2022/10/29 10:15:22;;;;;;;10.13;9.23;;;12.70;99.90;;;;;;6154672;23;20171;-86
2022/10/29 10:17:55;;;;;;;9.98;8.90;;;12.70;99.90;;;;;;6154362;23;20191;-86
2022/10/29 10:20:45;;;;;;;9.40;8.63;;;12.80;99.90;;;;;;6154118;23;20196;-86
2022/10/29 10:23:24;;;;;;;11.18;10.25;;;12.90;99.90;;;;;;6148793;23;20254;-85
2022/10/29 10:25:55;;;;;;;11.38;10.30;;;12.90;99.90;;;;;;6156828;23;20173;-85
2022/10/29 10:28:33;;;;;;;11.35;10.27;;;12.90;99.90;;;;;;6155929;23;20171;-84
2022/10/29 10:31:13;;;;;;;11.90;9.55;;;13.00;99.90;;;;;;6156547;23;20210;-85
2022/10/29 10:33:50;;;;;;;9.20;8.27;;;13.00;99.90;;;;;;6156632;23;20190;-85
2022/10/29 10:36:22;;;;;;;9.55;8.75;;;13.00;99.90;;;;;;6156977;23;20171;-84
2022/10/29 10:38:51;;;;;;;10.25;9.25;;;13.10;99.90;;;;;;6155523;23;20195;-84
2022/10/29 10:41:26;;;;;;;9.48;8.43;;;13.10;99.90;;;;;;6156079;23;20215;-85
2022/10/29 10:43:59;;;;;;;9.85;8.85;;;13.20;99.90;;;;;;6156649;23;20167;-85
2022/10/29 10:46:30;;;;;;;8.80;8.10;;;13.20;99.90;;;;;;6156380;23;20182;-85
2022/10/29 10:49:00;;;;;;;9.35;8.45;;;13.20;99.90;;;;;;6155515;23;20171;-85
2022/10/29 10:51:31;;;;;;;10.07;9.00;;;13.20;99.90;;;;;;6156402;23;20202;-85
2022/10/29 10:54:01;;;;;;;9.30;8.57;;;13.30;99.90;;;;;;6156674;23;20173;-85
2022/10/29 10:56:31;;;;;;;9.18;8.27;;;13.30;99.90;;;;;;6156226;23;20167;-84
2022/10/29 10:59:05;;;;;;;10.38;9.38;;;13.30;99.90;;;;;;6155443;23;20270;-84
2022/10/29 11:01:38;;;;;;;9.13;8.35;;;13.30;99.90;;;;;;6155933;23;20194;-85
2022/10/29 11:04:15;;;;;;;8.25;7.45;;;13.30;99.90;;;;;;6156389;23;20174;-85
2022/10/29 11:06:48;;;;;;;11.98;8.80;;;13.40;99.90;;;;;;6156025;23;20182;-85
2022/10/29 11:09:24;;;;;;;10.43;9.48;;;13.40;99.90;;;;;;6155733;23;20159;-85
2022/10/29 11:12:00;;;;;;;8.95;8.15;;;13.50;99.90;;;;;;6156441;23;20191;-84
2022/10/29 11:14:35;;;;;;;9.77;8.93;;;13.40;99.90;;;;;;6156448;23;20175;-85
2022/10/29 11:17:07;;;;;;;11.80;8.75;;;13.40;99.90;;;;;;6156267;23;20178;-85
2022/10/29 11:19:41;;;;;;;10.80;9.10;;;13.40;99.90;;;;;;6154815;23;20187;-86
2022/10/29 11:22:18;;;;;;;9.13;8.30;;;13.40;99.90;;;;;;6156134;23;20186;-86
2022/10/29 11:24:53;;;;;;;9.30;8.40;;;13.40;99.90;;;;;;6156037;23;20222;-84
2022/10/29 11:27:34;;;;;;;10.05;9.05;;;13.40;99.90;;;;;;6156353;23;20163;-85
2022/10/29 11:30:05;;;;;;;9.90;8.98;;;13.40;99.90;;;;;;6155195;23;20188;-85
2022/10/29 11:32:46;;;;;;;9.82;8.93;;;13.30;99.90;;;;;;6155865;23;20178;-86
2022/10/29 11:35:20;;;;;;;10.18;9.27;;;13.40;99.90;;;;;;6155847;23;20174;-84
2022/10/29 11:37:55;;;;;;;10.27;9.48;;;13.40;99.90;;;;;;6156140;23;20171;-84
2022/10/29 11:40:28;;;;;;;12.85;11.65;;;13.50;99.90;;;;;;6154832;23;20253;-84
2022/10/29 11:43:00;;;;;;;11.88;10.63;;;13.50;99.90;;;;;;6155962;23;20163;-85
2022/10/29 11:45:44;;;;;;;10.40;9.27;;;13.50;99.90;;;;;;6155672;23;20382;-84
2022/10/29 11:48:22;;;;;;;10.55;9.68;;;13.60;99.90;;;;;;6155806;23;20163;-85
2022/10/29 11:50:59;;;;;;;11.80;9.88;;;13.60;99.90;;;;;;6155425;23;20273;-85
2022/10/29 11:53:41;;;;;;;10.50;9.50;;;13.60;99.90;;;;;;6155766;23;20181;-85
2022/10/29 11:56:21;;;;;;;10.13;9.23;;;13.70;99.90;;;;;;6155942;23;20168;-85
2022/10/29 11:58:57;;;;;;;11.00;9.88;;;13.70;99.90;;;;;;6155213;23;20195;-85
2022/10/29 12:01:36;;;;;;;10.38;9.43;;;13.70;99.90;;;;;;6155523;23;20195;-85
2022/10/29 12:04:22;;;;;;;11.27;10.18;;;13.60;99.90;;;;;;6155451;23;20178;-85
2022/10/29 12:07:02;;;;;;;11.68;10.48;;;13.60;99.90;;;;;;6155712;23;20167;-85
2022/10/29 12:09:44;;;;;;;11.57;9.40;;;13.60;99.90;;;;;;6155341;23;20174;-85
2022/10/29 12:12:19;;;;;;;12.38;10.57;;;13.70;99.90;;;;;;6155674;23;20179;-85
2022/10/29 12:14:54;;;;;;;12.52;10.23;;;13.70;99.90;;;;;;6155720;23;20171;-84
2022/10/29 12:17:31;;;;;;;10.32;9.25;;;13.70;99.90;;;;;;6155547;23;20177;-85
2022/10/29 12:20:06;;;;;;;14.13;12.70;;;13.70;99.90;;;;;;6155050;23;20203;-85
2022/10/29 12:22:40;;;;;;;21.80;16.52;;;13.70;99.90;;;;;;6155774;23;20190;-85
2022/10/29 12:25:24;;;;;;;26.98;24.20;;;13.80;99.90;;;;;;6155607;23;20169;-85
2022/10/29 12:28:04;;;;;;;13.30;11.93;;;13.80;99.90;;;;;;6155530;23;20174;-84
2022/10/29 12:30:39;;;;;;;11.30;10.25;;;13.70;99.90;;;;;;6154508;23;20206;-85
2022/10/29 12:33:15;;;;;;;11.18;9.73;;;13.70;99.90;;;;;;6155749;23;20171;-84
2022/10/29 12:35:51;;;;;;;14.18;12.88;;;13.60;99.90;;;;;;6155678;23;20167;-84
2022/10/29 12:38:33;;;;;;;19.23;13.25;;;13.70;99.90;;;;;;6155305;23;20171;-84
2022/10/29 12:41:05;;;;;;;17.60;15.38;;;13.70;99.90;;;;;;6155017;23;20202;-84
2022/10/29 12:43:36;;;;;;;16.40;14.70;;;13.60;99.90;;;;;;6155386;23;20171;-83
2022/10/29 12:46:16;;;;;;;18.38;16.48;;;13.60;99.90;;;;;;6155096;23;20163;-86
2022/10/29 12:48:58;;;;;;;35.30;31.75;;;13.60;99.90;;;;;;6154457;23;20176;-84
2022/10/29 12:51:35;;;;;;;48.78;40.80;;;13.60;99.90;;;;;;6154520;23;20198;-84
2022/10/29 12:54:20;;;;;;;54.88;42.15;;;13.60;99.90;;;;;;6154764;23;20174;-84
2022/10/29 12:56:48;;;;;;;23.10;20.80;;;13.60;99.90;;;;;;6155454;23;20171;-84